Terminal Aerodrome Forecast
Issued by NWS

Home | Current Version | Previous Version | Text Only | Print | Product List | Glossary On
Versions: 1 2 3 4 5 6 7 8 9 10 11 12 13 14 15 16 17 18 19 20 21 22 23
000
FTAK31 PAFA 200058 AAA
TAFATA
TAF AMD
PATA 200058Z 2001/2024 03003KT 1 1/2SM BR FEW002 BKN070
     FM200400 10005KT 2SM -SN BR SCT025 OVC040
     FM200800 08008KT 4SM -SN BR BKN025 OVC040=

USA.gov is the U.S. government's official web portal to all federal, state and local government web resources and services.